sensor_id;sensor_type;location;lat;lon;timestamp;P1;durP1;ratioP1;P2;durP2;ratioP2
26588;SDS011;14235;48.532;8.722;2023-09-19T00:02:02;3.13;;;1.15;;
26588;SDS011;14235;48.532;8.722;2023-09-19T00:04:33;2.33;;;0.70;;
26588;SDS011;14235;48.532;8.722;2023-09-19T00:06:59;1.60;;;0.98;;
26588;SDS011;14235;48.532;8.722;2023-09-19T00:09:27;0.90;;;0.90;;
26588;SDS011;14235;48.532;8.722;2023-09-19T00:11:53;2.30;;;1.05;;
26588;SDS011;14235;48.532;8.722;2023-09-19T00:14:19;0.70;;;0.68;;
26588;SDS011;14235;48.532;8.722;2023-09-19T00:16:49;3.03;;;0.95;;
26588;SDS011;14235;48.532;8.722;2023-09-19T00:19:15;1.58;;;0.90;;
26588;SDS011;14235;48.532;8.722;2023-09-19T00:21:41;0.95;;;0.85;;
26588;SDS011;14235;48.532;8.722;2023-09-19T00:24:08;2.35;;;0.98;;
26588;SDS011;14235;48.532;8.722;2023-09-19T00:26:34;1.58;;;0.93;;
26588;SDS011;14235;48.532;8.722;2023-09-19T00:29:01;1.60;;;0.70;;
26588;SDS011;14235;48.532;8.722;2023-09-19T00:31:28;1.52;;;0.88;;
26588;SDS011;14235;48.532;8.722;2023-09-19T00:33:55;1.65;;;0.73;;
26588;SDS011;14235;48.532;8.722;2023-09-19T00:36:25;0.70;;;0.70;;
26588;SDS011;14235;48.532;8.722;2023-09-19T00:38:51;0.95;;;0.55;;
26588;SDS011;14235;48.532;8.722;2023-09-19T00:41:18;0.75;;;0.57;;
26588;SDS011;14235;48.532;8.722;2023-09-19T00:43:44;1.42;;;0.68;;
26588;SDS011;14235;48.532;8.722;2023-09-19T00:46:10;0.70;;;0.70;;
26588;SDS011;14235;48.532;8.722;2023-09-19T00:48:38;0.82;;;0.82;;
26588;SDS011;14235;48.532;8.722;2023-09-19T00:51:06;1.15;;;0.82;;
26588;SDS011;14235;48.532;8.722;2023-09-19T00:53:32;0.63;;;0.60;;
26588;SDS011;14235;48.532;8.722;2023-09-19T00:55:59;0.60;;;0.60;;
26588;SDS011;14235;48.532;8.722;2023-09-19T00:58:25;1.00;;;0.73;;
26588;SDS011;14235;48.532;8.722;2023-09-19T01:00:57;1.38;;;0.80;;
26588;SDS011;14235;48.532;8.722;2023-09-19T01:03:23;0.90;;;0.90;;
26588;SDS011;14235;48.532;8.722;2023-09-19T01:05:49;1.60;;;0.85;;
26588;SDS011;14235;48.532;8.722;2023-09-19T01:08:15;1.88;;;1.13;;
26588;SDS011;14235;48.532;8.722;2023-09-19T01:10:52;0.70;;;0.60;;
26588;SDS011;14235;48.532;8.722;2023-09-19T01:13:31;1.42;;;0.80;;
26588;SDS011;14235;48.532;8.722;2023-09-19T01:18:43;2.38;;;0.75;;
26588;SDS011;14235;48.532;8.722;2023-09-19T01:21:18;2.22;;;0.88;;
26588;SDS011;14235;48.532;8.722;2023-09-19T01:26:28;1.27;;;1.00;;
26588;SDS011;14235;48.532;8.722;2023-09-19T01:31:44;0.57;;;0.57;;
26588;SDS011;14235;48.532;8.722;2023-09-19T01:34:11;1.17;;;0.85;;
26588;SDS011;14235;48.532;8.722;2023-09-19T01:36:37;2.25;;;1.17;;
26588;SDS011;14235;48.532;8.722;2023-09-19T01:39:04;2.97;;;1.00;;
26588;SDS011;14235;48.532;8.722;2023-09-19T01:41:46;2.90;;;0.90;;
26588;SDS011;14235;48.532;8.722;2023-09-19T01:44:17;1.10;;;0.93;;
26588;SDS011;14235;48.532;8.722;2023-09-19T01:46:45;0.82;;;0.80;;
26588;SDS011;14235;48.532;8.722;2023-09-19T01:54:16;3.15;;;1.10;;
26588;SDS011;14235;48.532;8.722;2023-09-19T01:57:05;2.25;;;0.98;;
26588;SDS011;14235;48.532;8.722;2023-09-19T01:59:36;1.77;;;0.90;;
26588;SDS011;14235;48.532;8.722;2023-09-19T02:02:05;3.33;;;1.05;;
26588;SDS011;14235;48.532;8.722;2023-09-19T02:04:33;1.52;;;1.00;;
26588;SDS011;14235;48.532;8.722;2023-09-19T02:07:02;0.90;;;0.90;;
26588;SDS011;14235;48.532;8.722;2023-09-19T02:09:33;1.77;;;0.90;;
26588;SDS011;14235;48.532;8.722;2023-09-19T02:12:00;0.82;;;0.68;;
26588;SDS011;14235;48.532;8.722;2023-09-19T02:14:29;3.85;;;1.17;;
26588;SDS011;14235;48.532;8.722;2023-09-19T02:16:56;3.30;;;1.10;;
26588;SDS011;14235;48.532;8.722;2023-09-19T02:19:22;2.17;;;1.02;;
26588;SDS011;14235;48.532;8.722;2023-09-19T02:21:48;2.70;;;0.90;;
26588;SDS011;14235;48.532;8.722;2023-09-19T02:24:14;2.00;;;0.95;;
26588;SDS011;14235;48.532;8.722;2023-09-19T02:26:40;1.08;;;0.88;;
26588;SDS011;14235;48.532;8.722;2023-09-19T02:29:06;1.23;;;1.00;;
26588;SDS011;14235;48.532;8.722;2023-09-19T02:31:32;1.15;;;1.02;;
26588;SDS011;14235;48.532;8.722;2023-09-19T02:33:58;1.38;;;0.80;;
26588;SDS011;14235;48.532;8.722;2023-09-19T02:36:25;3.33;;;1.17;;
26588;SDS011;14235;48.532;8.722;2023-09-19T02:38:51;2.55;;;0.90;;
26588;SDS011;14235;48.532;8.722;2023-09-19T02:41:18;1.25;;;0.90;;
26588;SDS011;14235;48.532;8.722;2023-09-19T02:43:44;3.45;;;0.90;;
26588;SDS011;14235;48.532;8.722;2023-09-19T02:46:10;1.63;;;1.42;;
26588;SDS011;14235;48.532;8.722;2023-09-19T02:48:36;3.30;;;1.50;;
26588;SDS011;14235;48.532;8.722;2023-09-19T02:51:03;4.18;;;1.25;;
26588;SDS011;14235;48.532;8.722;2023-09-19T02:53:30;1.10;;;0.93;;
26588;SDS011;14235;48.532;8.722;2023-09-19T02:55:57;3.20;;;1.30;;
26588;SDS011;14235;48.532;8.722;2023-09-19T02:58:23;3.40;;;1.25;;
26588;SDS011;14235;48.532;8.722;2023-09-19T03:00:50;1.73;;;1.00;;
26588;SDS011;14235;48.532;8.722;2023-09-19T03:03:16;1.85;;;1.10;;
26588;SDS011;14235;48.532;8.722;2023-09-19T03:05:42;3.03;;;1.10;;
26588;SDS011;14235;48.532;8.722;2023-09-19T03:08:13;1.50;;;1.02;;
26588;SDS011;14235;48.532;8.722;2023-09-19T03:10:42;2.13;;;1.10;;
26588;SDS011;14235;48.532;8.722;2023-09-19T03:13:08;1.23;;;1.10;;
26588;SDS011;14235;48.532;8.722;2023-09-19T03:15:35;0.80;;;0.80;;
26588;SDS011;14235;48.532;8.722;2023-09-19T03:18:04;1.42;;;0.95;;
26588;SDS011;14235;48.532;8.722;2023-09-19T03:20:31;1.23;;;1.00;;
26588;SDS011;14235;48.532;8.722;2023-09-19T03:22:57;1.63;;;1.42;;
26588;SDS011;14235;48.532;8.722;2023-09-19T03:25:23;1.65;;;1.30;;
26588;SDS011;14235;48.532;8.722;2023-09-19T03:27:49;4.47;;;1.30;;
26588;SDS011;14235;48.532;8.722;2023-09-19T03:30:15;3.15;;;1.30;;
26588;SDS011;14235;48.532;8.722;2023-09-19T03:32:45;1.77;;;1.55;;
26588;SDS011;14235;48.532;8.722;2023-09-19T03:35:14;1.27;;;1.17;;
26588;SDS011;14235;48.532;8.722;2023-09-19T03:37:41;3.47;;;1.33;;
26588;SDS011;14235;48.532;8.722;2023-09-19T03:40:08;2.78;;;1.15;;
26588;SDS011;14235;48.532;8.722;2023-09-19T03:42:37;1.10;;;1.00;;
26588;SDS011;14235;48.532;8.722;2023-09-19T03:45:03;2.03;;;1.27;;
26588;SDS011;14235;48.532;8.722;2023-09-19T03:47:31;1.13;;;1.13;;
26588;SDS011;14235;48.532;8.722;2023-09-19T03:49:58;1.83;;;1.48;;
26588;SDS011;14235;48.532;8.722;2023-09-19T03:52:24;2.78;;;1.25;;
26588;SDS011;14235;48.532;8.722;2023-09-19T03:54:50;1.40;;;1.15;;
26588;SDS011;14235;48.532;8.722;2023-09-19T03:57:16;2.75;;;1.20;;
26588;SDS011;14235;48.532;8.722;2023-09-19T03:59:45;1.35;;;1.17;;
26588;SDS011;14235;48.532;8.722;2023-09-19T04:02:12;1.83;;;1.30;;
26588;SDS011;14235;48.532;8.722;2023-09-19T04:04:47;4.20;;;1.45;;
26588;SDS011;14235;48.532;8.722;2023-09-19T04:07:13;2.17;;;1.23;;
26588;SDS011;14235;48.532;8.722;2023-09-19T04:09:39;2.45;;;1.23;;
26588;SDS011;14235;48.532;8.722;2023-09-19T04:12:05;1.42;;;1.33;;
26588;SDS011;14235;48.532;8.722;2023-09-19T04:14:31;1.98;;;1.48;;
26588;SDS011;14235;48.532;8.722;2023-09-19T04:16:57;3.83;;;1.27;;
26588;SDS011;14235;48.532;8.722;2023-09-19T04:19:23;1.67;;;0.98;;
26588;SDS011;14235;48.532;8.722;2023-09-19T04:21:49;0.90;;;0.90;;
26588;SDS011;14235;48.532;8.722;2023-09-19T04:24:18;2.55;;;1.30;;
26588;SDS011;14235;48.532;8.722;2023-09-19T04:26:47;2.88;;;1.25;;
26588;SDS011;14235;48.532;8.722;2023-09-19T04:29:13;1.98;;;1.20;;
26588;SDS011;14235;48.532;8.722;2023-09-19T04:31:39;2.72;;;1.48;;
26588;SDS011;14235;48.532;8.722;2023-09-19T04:34:08;1.75;;;1.25;;
26588;SDS011;14235;48.532;8.722;2023-09-19T04:36:35;1.95;;;1.30;;
26588;SDS011;14235;48.532;8.722;2023-09-19T04:39:02;2.35;;;1.60;;
26588;SDS011;14235;48.532;8.722;2023-09-19T04:41:30;2.72;;;1.10;;
26588;SDS011;14235;48.532;8.722;2023-09-19T04:43:56;2.33;;;1.08;;
26588;SDS011;14235;48.532;8.722;2023-09-19T04:46:22;2.70;;;1.20;;
26588;SDS011;14235;48.532;8.722;2023-09-19T04:48:48;1.60;;;0.95;;
26588;SDS011;14235;48.532;8.722;2023-09-19T04:51:14;1.55;;;1.30;;
26588;SDS011;14235;48.532;8.722;2023-09-19T04:53:40;1.40;;;1.02;;
26588;SDS011;14235;48.532;8.722;2023-09-19T04:56:06;1.85;;;1.48;;
26588;SDS011;14235;48.532;8.722;2023-09-19T04:58:33;1.52;;;1.23;;
26588;SDS011;14235;48.532;8.722;2023-09-19T05:00:59;1.70;;;1.30;;
26588;SDS011;14235;48.532;8.722;2023-09-19T05:03:28;2.15;;;1.20;;
26588;SDS011;14235;48.532;8.722;2023-09-19T05:05:54;1.02;;;1.00;;
26588;SDS011;14235;48.532;8.722;2023-09-19T05:08:20;1.83;;;1.52;;
26588;SDS011;14235;48.532;8.722;2023-09-19T05:10:47;1.23;;;1.13;;
26588;SDS011;14235;48.532;8.722;2023-09-19T05:13:14;2.05;;;1.60;;
26588;SDS011;14235;48.532;8.722;2023-09-19T05:15:40;1.60;;;1.50;;
26588;SDS011;14235;48.532;8.722;2023-09-19T05:18:06;1.30;;;1.20;;
26588;SDS011;14235;48.532;8.722;2023-09-19T05:20:32;1.20;;;1.17;;
26588;SDS011;14235;48.532;8.722;2023-09-19T05:23:06;1.42;;;1.30;;
26588;SDS011;14235;48.532;8.722;2023-09-19T05:25:37;1.35;;;1.25;;
26588;SDS011;14235;48.532;8.722;2023-09-19T05:28:07;1.30;;;1.02;;
26588;SDS011;14235;48.532;8.722;2023-09-19T05:30:33;1.77;;;1.33;;
26588;SDS011;14235;48.532;8.722;2023-09-19T05:33:01;1.25;;;1.15;;
26588;SDS011;14235;48.532;8.722;2023-09-19T05:35:27;1.23;;;1.10;;
26588;SDS011;14235;48.532;8.722;2023-09-19T05:37:53;1.40;;;1.20;;
26588;SDS011;14235;48.532;8.722;2023-09-19T05:40:21;1.77;;;1.10;;
26588;SDS011;14235;48.532;8.722;2023-09-19T05:42:47;2.17;;;1.13;;
26588;SDS011;14235;48.532;8.722;2023-09-19T05:45:14;1.33;;;1.23;;
26588;SDS011;14235;48.532;8.722;2023-09-19T05:47:44;1.95;;;1.20;;
26588;SDS011;14235;48.532;8.722;2023-09-19T05:50:11;1.65;;;1.33;;
26588;SDS011;14235;48.532;8.722;2023-09-19T05:52:37;1.20;;;1.02;;
26588;SDS011;14235;48.532;8.722;2023-09-19T05:55:06;3.28;;;1.17;;
26588;SDS011;14235;48.532;8.722;2023-09-19T05:57:36;1.33;;;1.23;;
26588;SDS011;14235;48.532;8.722;2023-09-19T06:00:04;5.30;;;1.50;;
26588;SDS011;14235;48.532;8.722;2023-09-19T06:02:35;1.58;;;1.40;;
26588;SDS011;14235;48.532;8.722;2023-09-19T06:05:02;1.75;;;1.15;;
26588;SDS011;14235;48.532;8.722;2023-09-19T06:07:29;1.67;;;1.25;;
26588;SDS011;14235;48.532;8.722;2023-09-19T06:10:01;1.15;;;1.13;;
26588;SDS011;14235;48.532;8.722;2023-09-19T06:12:28;1.30;;;1.15;;
26588;SDS011;14235;48.532;8.722;2023-09-19T06:14:55;4.40;;;1.50;;
26588;SDS011;14235;48.532;8.722;2023-09-19T06:17:21;3.40;;;1.40;;
26588;SDS011;14235;48.532;8.722;2023-09-19T06:19:47;1.42;;;1.33;;
26588;SDS011;14235;48.532;8.722;2023-09-19T06:22:16;1.60;;;1.30;;
26588;SDS011;14235;48.532;8.722;2023-09-19T06:24:43;1.80;;;1.30;;
26588;SDS011;14235;48.532;8.722;2023-09-19T06:27:09;1.60;;;1.50;;
26588;SDS011;14235;48.532;8.722;2023-09-19T06:29:35;1.30;;;1.20;;
26588;SDS011;14235;48.532;8.722;2023-09-19T06:32:06;1.63;;;1.33;;
26588;SDS011;14235;48.532;8.722;2023-09-19T06:34:33;2.58;;;1.73;;
26588;SDS011;14235;48.532;8.722;2023-09-19T06:36:59;2.53;;;1.77;;
26588;SDS011;14235;48.532;8.722;2023-09-19T06:39:25;4.68;;;2.10;;
26588;SDS011;14235;48.532;8.722;2023-09-19T06:41:51;3.85;;;2.30;;
26588;SDS011;14235;48.532;8.722;2023-09-19T06:44:20;3.13;;;1.80;;
26588;SDS011;14235;48.532;8.722;2023-09-19T06:46:49;3.35;;;2.10;;
26588;SDS011;14235;48.532;8.722;2023-09-19T06:49:16;2.28;;;2.17;;
26588;SDS011;14235;48.532;8.722;2023-09-19T06:51:42;3.33;;;2.22;;
26588;SDS011;14235;48.532;8.722;2023-09-19T06:54:09;1.50;;;1.40;;
26588;SDS011;14235;48.532;8.722;2023-09-19T06:56:35;1.48;;;1.42;;
26588;SDS011;14235;48.532;8.722;2023-09-19T06:59:01;1.88;;;1.40;;
26588;SDS011;14235;48.532;8.722;2023-09-19T07:01:28;2.13;;;1.17;;
26588;SDS011;14235;48.532;8.722;2023-09-19T07:03:54;1.25;;;1.10;;
26588;SDS011;14235;48.532;8.722;2023-09-19T07:06:20;1.95;;;1.10;;
26588;SDS011;14235;48.532;8.722;2023-09-19T07:08:46;1.65;;;1.38;;
26588;SDS011;14235;48.532;8.722;2023-09-19T07:11:13;1.63;;;1.20;;
26588;SDS011;14235;48.532;8.722;2023-09-19T07:13:40;1.10;;;1.00;;
26588;SDS011;14235;48.532;8.722;2023-09-19T07:16:06;1.45;;;0.98;;
26588;SDS011;14235;48.532;8.722;2023-09-19T07:18:35;1.42;;;1.15;;
26588;SDS011;14235;48.532;8.722;2023-09-19T07:21:02;1.10;;;1.10;;
26588;SDS011;14235;48.532;8.722;2023-09-19T07:23:30;3.00;;;1.20;;
26588;SDS011;14235;48.532;8.722;2023-09-19T07:25:59;1.80;;;1.13;;
26588;SDS011;14235;48.532;8.722;2023-09-19T07:28:26;3.13;;;1.73;;
26588;SDS011;14235;48.532;8.722;2023-09-19T07:30:53;2.65;;;1.42;;
26588;SDS011;14235;48.532;8.722;2023-09-19T07:33:19;1.33;;;1.23;;
26588;SDS011;14235;48.532;8.722;2023-09-19T07:35:48;2.17;;;1.48;;
26588;SDS011;14235;48.532;8.722;2023-09-19T07:38:14;1.27;;;1.17;;
26588;SDS011;14235;48.532;8.722;2023-09-19T07:40:40;1.20;;;1.20;;
26588;SDS011;14235;48.532;8.722;2023-09-19T07:43:06;1.20;;;1.10;;
26588;SDS011;14235;48.532;8.722;2023-09-19T07:45:33;1.38;;;1.00;;
26588;SDS011;14235;48.532;8.722;2023-09-19T07:48:01;1.38;;;1.23;;
26588;SDS011;14235;48.532;8.722;2023-09-19T07:50:29;2.28;;;1.10;;
26588;SDS011;14235;48.532;8.722;2023-09-19T07:52:55;1.50;;;1.40;;
26588;SDS011;14235;48.532;8.722;2023-09-19T07:55:22;2.50;;;1.25;;
26588;SDS011;14235;48.532;8.722;2023-09-19T07:57:50;1.88;;;1.00;;
26588;SDS011;14235;48.532;8.722;2023-09-19T08:00:16;2.67;;;1.48;;
26588;SDS011;14235;48.532;8.722;2023-09-19T08:02:42;1.45;;;1.35;;
26588;SDS011;14235;48.532;8.722;2023-09-19T08:05:09;1.88;;;1.23;;
26588;SDS011;14235;48.532;8.722;2023-09-19T08:07:38;1.35;;;1.25;;
26588;SDS011;14235;48.532;8.722;2023-09-19T08:10:05;1.33;;;1.23;;
26588;SDS011;14235;48.532;8.722;2023-09-19T08:12:38;1.98;;;1.08;;
26588;SDS011;14235;48.532;8.722;2023-09-19T08:15:13;3.30;;;1.23;;
26588;SDS011;14235;48.532;8.722;2023-09-19T08:17:39;1.15;;;1.00;;
26588;SDS011;14235;48.532;8.722;2023-09-19T08:20:06;1.75;;;1.20;;
26588;SDS011;14235;48.532;8.722;2023-09-19T08:22:32;1.48;;;1.23;;
26588;SDS011;14235;48.532;8.722;2023-09-19T08:25:00;3.80;;;1.40;;
26588;SDS011;14235;48.532;8.722;2023-09-19T08:27:26;1.80;;;1.20;;
26588;SDS011;14235;48.532;8.722;2023-09-19T08:29:53;3.33;;;1.25;;
26588;SDS011;14235;48.532;8.722;2023-09-19T08:32:19;1.75;;;1.00;;
26588;SDS011;14235;48.532;8.722;2023-09-19T08:34:49;1.08;;;1.00;;
26588;SDS011;14235;48.532;8.722;2023-09-19T08:37:15;1.73;;;1.30;;
26588;SDS011;14235;48.532;8.722;2023-09-19T08:39:43;1.30;;;1.20;;
26588;SDS011;14235;48.532;8.722;2023-09-19T08:42:09;1.02;;;1.02;;
26588;SDS011;14235;48.532;8.722;2023-09-19T08:44:37;1.30;;;1.20;;
26588;SDS011;14235;48.532;8.722;2023-09-19T08:47:12;2.50;;;1.42;;
26588;SDS011;14235;48.532;8.722;2023-09-19T08:49:51;1.48;;;1.38;;
26588;SDS011;14235;48.532;8.722;2023-09-19T08:52:20;2.13;;;1.50;;
26588;SDS011;14235;48.532;8.722;2023-09-19T08:54:48;1.35;;;1.25;;
26588;SDS011;14235;48.532;8.722;2023-09-19T08:57:15;1.90;;;1.33;;
26588;SDS011;14235;48.532;8.722;2023-09-19T08:59:46;1.55;;;1.45;;
26588;SDS011;14235;48.532;8.722;2023-09-19T09:02:13;2.33;;;1.40;;
26588;SDS011;14235;48.532;8.722;2023-09-19T09:04:41;1.63;;;1.52;;
26588;SDS011;14235;48.532;8.722;2023-09-19T09:07:12;1.45;;;1.30;;
26588;SDS011;14235;48.532;8.722;2023-09-19T09:09:38;1.88;;;1.50;;
26588;SDS011;14235;48.532;8.722;2023-09-19T09:12:11;1.38;;;1.27;;
26588;SDS011;14235;48.532;8.722;2023-09-19T09:14:38;1.40;;;1.23;;
26588;SDS011;14235;48.532;8.722;2023-09-19T09:17:04;2.88;;;1.50;;
26588;SDS011;14235;48.532;8.722;2023-09-19T09:19:30;1.67;;;1.40;;
26588;SDS011;14235;48.532;8.722;2023-09-19T09:22:09;1.20;;;1.10;;
26588;SDS011;14235;48.532;8.722;2023-09-19T09:24:35;1.17;;;1.17;;
26588;SDS011;14235;48.532;8.722;2023-09-19T09:27:04;1.50;;;1.40;;
26588;SDS011;14235;48.532;8.722;2023-09-19T09:29:49;2.30;;;1.40;;
26588;SDS011;14235;48.532;8.722;2023-09-19T09:32:16;1.92;;;1.33;;
26588;SDS011;14235;48.532;8.722;2023-09-19T09:34:43;5.75;;;1.30;;
26588;SDS011;14235;48.532;8.722;2023-09-19T09:37:16;2.28;;;1.50;;
26588;SDS011;14235;48.532;8.722;2023-09-19T09:39:52;1.15;;;1.05;;
26588;SDS011;14235;48.532;8.722;2023-09-19T09:42:29;1.52;;;1.42;;
26588;SDS011;14235;48.532;8.722;2023-09-19T09:47:53;1.50;;;1.38;;
26588;SDS011;14235;48.532;8.722;2023-09-19T09:50:23;2.15;;;1.30;;
26588;SDS011;14235;48.532;8.722;2023-09-19T09:52:54;1.40;;;1.30;;
26588;SDS011;14235;48.532;8.722;2023-09-19T09:55:27;1.40;;;1.30;;
26588;SDS011;14235;48.532;8.722;2023-09-19T10:00:55;5.03;;;1.52;;
26588;SDS011;14235;48.532;8.722;2023-09-19T10:03:24;3.17;;;1.67;;
26588;SDS011;14235;48.532;8.722;2023-09-19T10:05:57;1.70;;;1.42;;
26588;SDS011;14235;48.532;8.722;2023-09-19T10:08:36;1.40;;;1.30;;
26588;SDS011;14235;48.532;8.722;2023-09-19T10:11:14;1.98;;;1.35;;
26588;SDS011;14235;48.532;8.722;2023-09-19T10:13:40;1.38;;;1.27;;
26588;SDS011;14235;48.532;8.722;2023-09-19T10:16:08;3.38;;;1.48;;
26588;SDS011;14235;48.532;8.722;2023-09-19T10:18:36;1.63;;;1.52;;
26588;SDS011;14235;48.532;8.722;2023-09-19T10:21:04;2.42;;;1.40;;
26588;SDS011;14235;48.532;8.722;2023-09-19T10:23:32;3.45;;;1.52;;
26588;SDS011;14235;48.532;8.722;2023-09-19T10:25:59;1.10;;;1.00;;
26588;SDS011;14235;48.532;8.722;2023-09-19T10:28:27;1.50;;;1.23;;
26588;SDS011;14235;48.532;8.722;2023-09-19T10:30:54;1.50;;;1.40;;
26588;SDS011;14235;48.532;8.722;2023-09-19T10:33:22;1.60;;;1.50;;
26588;SDS011;14235;48.532;8.722;2023-09-19T10:35:51;1.13;;;1.00;;
26588;SDS011;14235;48.532;8.722;2023-09-19T10:38:19;1.90;;;1.40;;
26588;SDS011;14235;48.532;8.722;2023-09-19T10:40:48;1.52;;;1.42;;
26588;SDS011;14235;48.532;8.722;2023-09-19T10:43:17;2.33;;;1.23;;
26588;SDS011;14235;48.532;8.722;2023-09-19T10:45:43;1.55;;;1.45;;
26588;SDS011;14235;48.532;8.722;2023-09-19T10:48:36;3.20;;;1.60;;
26588;SDS011;14235;48.532;8.722;2023-09-19T10:53:31;1.15;;;1.15;;
26588;SDS011;14235;48.532;8.722;2023-09-19T10:55:59;1.40;;;1.30;;
26588;SDS011;14235;48.532;8.722;2023-09-19T10:58:32;1.27;;;0.93;;
26588;SDS011;14235;48.532;8.722;2023-09-19T11:00:59;1.23;;;1.17;;
26588;SDS011;14235;48.532;8.722;2023-09-19T11:03:34;2.20;;;1.10;;
26588;SDS011;14235;48.532;8.722;2023-09-19T11:06:09;2.50;;;0.98;;
26588;SDS011;14235;48.532;8.722;2023-09-19T11:09:21;2.47;;;1.42;;
26588;SDS011;14235;48.532;8.722;2023-09-19T11:16:39;1.42;;;1.33;;
26588;SDS011;14235;48.532;8.722;2023-09-19T11:19:05;1.58;;;1.40;;
26588;SDS011;14235;48.532;8.722;2023-09-19T11:26:44;2.83;;;1.40;;
26588;SDS011;14235;48.532;8.722;2023-09-19T11:29:26;1.50;;;1.30;;
26588;SDS011;14235;48.532;8.722;2023-09-19T11:31:53;1.55;;;1.38;;
26588;SDS011;14235;48.532;8.722;2023-09-19T11:37:03;1.85;;;1.40;;
26588;SDS011;14235;48.532;8.722;2023-09-19T11:39:29;1.80;;;1.40;;
26588;SDS011;14235;48.532;8.722;2023-09-19T11:41:55;1.67;;;1.58;;
26588;SDS011;14235;48.532;8.722;2023-09-19T11:44:32;3.03;;;1.60;;
26588;SDS011;14235;48.532;8.722;2023-09-19T11:47:03;1.35;;;1.27;;
26588;SDS011;14235;48.532;8.722;2023-09-19T11:49:31;1.40;;;1.30;;
26588;SDS011;14235;48.532;8.722;2023-09-19T11:52:01;1.63;;;1.30;;
26588;SDS011;14235;48.532;8.722;2023-09-19T11:54:33;2.72;;;1.27;;
26588;SDS011;14235;48.532;8.722;2023-09-19T11:57:00;1.58;;;1.33;;
26588;SDS011;14235;48.532;8.722;2023-09-19T11:59:27;1.10;;;1.00;;
26588;SDS011;14235;48.532;8.722;2023-09-19T12:01:54;2.30;;;1.38;;
26588;SDS011;14235;48.532;8.722;2023-09-19T12:04:33;1.65;;;1.30;;
26588;SDS011;14235;48.532;8.722;2023-09-19T12:07:02;4.40;;;1.45;;
26588;SDS011;14235;48.532;8.722;2023-09-19T12:09:29;1.40;;;1.30;;
26588;SDS011;14235;48.532;8.722;2023-09-19T12:11:55;1.55;;;1.20;;
26588;SDS011;14235;48.532;8.722;2023-09-19T12:14:23;1.52;;;1.42;;
26588;SDS011;14235;48.532;8.722;2023-09-19T12:16:54;1.58;;;1.42;;
26588;SDS011;14235;48.532;8.722;2023-09-19T12:19:20;1.40;;;1.30;;
26588;SDS011;14235;48.532;8.722;2023-09-19T12:21:57;1.35;;;1.23;;
26588;SDS011;14235;48.532;8.722;2023-09-19T12:24:24;1.63;;;1.33;;
26588;SDS011;14235;48.532;8.722;2023-09-19T12:26:54;1.40;;;1.30;;
26588;SDS011;14235;48.532;8.722;2023-09-19T12:29:26;1.20;;;1.20;;
26588;SDS011;14235;48.532;8.722;2023-09-19T12:31:55;2.55;;;1.23;;
26588;SDS011;14235;48.532;8.722;2023-09-19T12:34:26;1.70;;;1.25;;
26588;SDS011;14235;48.532;8.722;2023-09-19T12:37:08;1.40;;;1.30;;
26588;SDS011;14235;48.532;8.722;2023-09-19T12:39:42;1.23;;;1.20;;
26588;SDS011;14235;48.532;8.722;2023-09-19T12:42:12;1.27;;;1.20;;
26588;SDS011;14235;48.532;8.722;2023-09-19T12:44:41;1.20;;;1.20;;
26588;SDS011;14235;48.532;8.722;2023-09-19T12:47:11;3.65;;;1.23;;
26588;SDS011;14235;48.532;8.722;2023-09-19T12:52:24;1.13;;;1.10;;
26588;SDS011;14235;48.532;8.722;2023-09-19T12:54:51;1.45;;;1.20;;
26588;SDS011;14235;48.532;8.722;2023-09-19T12:57:23;1.42;;;1.27;;
26588;SDS011;14235;48.532;8.722;2023-09-19T12:59:51;1.40;;;1.30;;
26588;SDS011;14235;48.532;8.722;2023-09-19T13:02:18;2.70;;;1.20;;
26588;SDS011;14235;48.532;8.722;2023-09-19T13:04:52;1.30;;;1.20;;
26588;SDS011;14235;48.532;8.722;2023-09-19T13:10:03;1.30;;;1.20;;
26588;SDS011;14235;48.532;8.722;2023-09-19T13:12:36;3.05;;;1.20;;
26588;SDS011;14235;48.532;8.722;2023-09-19T13:15:10;1.35;;;1.13;;
26588;SDS011;14235;48.532;8.722;2023-09-19T13:17:44;1.40;;;1.17;;
26588;SDS011;14235;48.532;8.722;2023-09-19T13:20:25;1.92;;;1.17;;
26588;SDS011;14235;48.532;8.722;2023-09-19T13:22:57;2.00;;;1.10;;
26588;SDS011;14235;48.532;8.722;2023-09-19T13:25:25;1.17;;;1.17;;
26588;SDS011;14235;48.532;8.722;2023-09-19T13:27:54;2.17;;;1.25;;
26588;SDS011;14235;48.532;8.722;2023-09-19T13:30:24;3.10;;;1.10;;
26588;SDS011;14235;48.532;8.722;2023-09-19T13:32:51;1.00;;;1.00;;
26588;SDS011;14235;48.532;8.722;2023-09-19T13:35:18;1.17;;;1.10;;
26588;SDS011;14235;48.532;8.722;2023-09-19T13:37:44;1.35;;;1.10;;
26588;SDS011;14235;48.532;8.722;2023-09-19T13:40:14;1.58;;;1.38;;
26588;SDS011;14235;48.532;8.722;2023-09-19T13:42:40;0.93;;;0.93;;
26588;SDS011;14235;48.532;8.722;2023-09-19T13:45:07;2.05;;;1.10;;
26588;SDS011;14235;48.532;8.722;2023-09-19T13:47:36;1.02;;;1.02;;
26588;SDS011;14235;48.532;8.722;2023-09-19T13:50:03;1.25;;;1.15;;
26588;SDS011;14235;48.532;8.722;2023-09-19T13:52:30;1.60;;;1.30;;
26588;SDS011;14235;48.532;8.722;2023-09-19T13:54:56;1.25;;;1.10;;
26588;SDS011;14235;48.532;8.722;2023-09-19T13:57:23;1.63;;;1.10;;
26588;SDS011;14235;48.532;8.722;2023-09-19T13:59:49;1.73;;;1.00;;
26588;SDS011;14235;48.532;8.722;2023-09-19T14:02:16;1.80;;;1.58;;
26588;SDS011;14235;48.532;8.722;2023-09-19T14:04:43;1.00;;;1.00;;
26588;SDS011;14235;48.532;8.722;2023-09-19T14:07:09;0.90;;;0.85;;
26588;SDS011;14235;48.532;8.722;2023-09-19T14:09:35;1.25;;;1.20;;
26588;SDS011;14235;48.532;8.722;2023-09-19T14:12:02;1.50;;;1.40;;
26588;SDS011;14235;48.532;8.722;2023-09-19T14:14:27;1.08;;;1.00;;
26588;SDS011;14235;48.532;8.722;2023-09-19T14:16:53;1.48;;;0.82;;
26588;SDS011;14235;48.532;8.722;2023-09-19T14:19:19;1.13;;;1.08;;
26588;SDS011;14235;48.532;8.722;2023-09-19T14:21:45;1.80;;;1.50;;
26588;SDS011;14235;48.532;8.722;2023-09-19T14:24:11;1.25;;;1.15;;
26588;SDS011;14235;48.532;8.722;2023-09-19T14:26:41;2.55;;;1.40;;
26588;SDS011;14235;48.532;8.722;2023-09-19T14:29:07;1.50;;;1.40;;
26588;SDS011;14235;48.532;8.722;2023-09-19T14:31:36;2.30;;;1.58;;
26588;SDS011;14235;48.532;8.722;2023-09-19T14:34:02;1.92;;;1.50;;
26588;SDS011;14235;48.532;8.722;2023-09-19T14:36:30;1.25;;;1.15;;
26588;SDS011;14235;48.532;8.722;2023-09-19T14:38:56;1.40;;;1.30;;
26588;SDS011;14235;48.532;8.722;2023-09-19T14:41:22;1.23;;;1.13;;
26588;SDS011;14235;48.532;8.722;2023-09-19T14:43:50;3.42;;;1.13;;
26588;SDS011;14235;48.532;8.722;2023-09-19T14:46:16;2.35;;;1.13;;
26588;SDS011;14235;48.532;8.722;2023-09-19T14:48:44;1.30;;;1.27;;
26588;SDS011;14235;48.532;8.722;2023-09-19T14:51:12;3.35;;;1.30;;
26588;SDS011;14235;48.532;8.722;2023-09-19T14:53:38;1.38;;;1.05;;
26588;SDS011;14235;48.532;8.722;2023-09-19T14:56:05;1.20;;;1.20;;
26588;SDS011;14235;48.532;8.722;2023-09-19T14:58:32;0.98;;;0.98;;
26588;SDS011;14235;48.532;8.722;2023-09-19T15:01:05;1.40;;;1.10;;
26588;SDS011;14235;48.532;8.722;2023-09-19T15:03:32;1.30;;;1.27;;
26588;SDS011;14235;48.532;8.722;2023-09-19T15:06:19;1.08;;;1.08;;
26588;SDS011;14235;48.532;8.722;2023-09-19T15:08:45;1.88;;;1.20;;
26588;SDS011;14235;48.532;8.722;2023-09-19T15:11:14;1.73;;;1.00;;
26588;SDS011;14235;48.532;8.722;2023-09-19T15:13:44;1.30;;;1.20;;
26588;SDS011;14235;48.532;8.722;2023-09-19T15:16:10;1.63;;;1.00;;
26588;SDS011;14235;48.532;8.722;2023-09-19T15:18:37;1.10;;;1.00;;
26588;SDS011;14235;48.532;8.722;2023-09-19T15:21:04;1.25;;;1.13;;
26588;SDS011;14235;48.532;8.722;2023-09-19T15:23:30;1.70;;;1.10;;
26588;SDS011;14235;48.532;8.722;2023-09-19T15:25:59;1.95;;;1.17;;
26588;SDS011;14235;48.532;8.722;2023-09-19T15:28:26;1.42;;;1.13;;
26588;SDS011;14235;48.532;8.722;2023-09-19T15:31:09;1.35;;;1.13;;
26588;SDS011;14235;48.532;8.722;2023-09-19T15:33:35;2.38;;;1.20;;
26588;SDS011;14235;48.532;8.722;2023-09-19T15:36:02;1.60;;;1.15;;